Asian Empire — 3FQF8 — position and weather

sailwx.info

Track history (hours):
 
Tides and Currents Weather Stations Pressure Air Temp Water Temp Dewpoint Dewpoint Depression Visibility Wind Speed Wind Dir Waves Ship Positions

Asian Empire

Last reported at 2017-May-22 03:35 UTC. Time now 2017-May-23 18:53 UTC.
Position N 31°22' E 029°01'.

Length 229 m; draft 8.2 m.

Type: Cargo ship. MMSI: 245087096.

Date/timePositionNaut miles runAvg speedWind from/ knotsBaromVisibWave heightAir tempDewpointWater temp
2017-May-22 03:35N 31°22' E 029°01'112.8
2017-May-22 03:30N 31°22' E 029°02'  
2017-May-18 22:46N 35°15' E 017°09'713.3
2017-May-18 22:12N 35°17' E 016°60'8313.6
2017-May-18 16:05N 35°43' E 015°22'1313.3
2017-May-18 15:06N 35°46' E 015°07'213.2
2017-May-18 14:59N 35°46' E 015°05'1212.8
2017-May-18 14:00N 35°51' E 014°50'5 9.6
2017-May-18 13:30N 35°53' E 014°45'0 0.1
2017-May-18 12:59N 35°53' E 014°45'0 0.0
2017-May-18 12:29N 35°53' E 014°45'0 0.0
2017-May-18 11:59N 35°53' E 014°45'0 0.0
2017-May-18 11:29N 35°53' E 014°45'0 0.0
2017-May-18 10:59N 35°53' E 014°45'0 0.0
2017-May-18 10:29N 35°53' E 014°45'0 0.0
2017-May-18 09:59N 35°53' E 014°45'0 0.0
2017-May-18 09:29N 35°53' E 014°45'0 0.0
2017-May-18 08:59N 35°53' E 014°45'0 0.1
2017-May-18 08:29N 35°53' E 014°45'0 0.0
2017-May-18 07:59N 35°53' E 014°45'0 0.0
2017-May-18 07:29N 35°53' E 014°45'0 0.0
2017-May-18 06:59N 35°53' E 014°45'0 0.0
2017-May-18 06:29N 35°53' E 014°45'0 0.0
2017-May-18 05:59N 35°53' E 014°45'0 0.0
2017-May-18 05:29N 35°53' E 014°45'0 0.0
2017-May-18 04:59N 35°53' E 014°45'0 0.0
2017-May-18 04:29N 35°53' E 014°45'0 0.0
2017-May-18 03:56N 35°53' E 014°45'0 0.0
2017-May-18 03:29N 35°53' E 014°45'0 0.0
2017-May-18 02:59N 35°53' E 014°45'0 0.0
2017-May-18 02:29N 35°53' E 014°45'0 0.0
2017-May-18 01:59N 35°53' E 014°45'0 0.0
2017-May-18 01:29N 35°53' E 014°45'0 0.1
2017-May-18 01:00N 35°53' E 014°45'3 6.9
2017-May-18 00:30N 35°55' E 014°42'713.0
2017-May-18 00:00N 35°59' E 014°35'713.1
2017-May-17 23:30N 36°03' E 014°29'713.2
2017-May-17 23:00N 36°07' E 014°22'613.2
2017-May-17 22:30N 36°09' E 014°15'713.1
2017-May-17 22:00N 36°12' E 014°07'612.8
2017-May-17 21:30N 36°15' E 014°00'612.8
2017-May-17 21:00N 36°18' E 013°53'712.9
2017-May-17 20:30N 36°21' E 013°46'713.4
2017-May-17 20:00N 36°25' E 013°39'713.3
2017-May-17 19:29N 36°27' E 013°31'1113.2
2017-May-17 18:40N 36°32' E 013°19'213.0
2017-May-17 18:30N 36°33' E 013°17'713.3
2017-May-17 18:00N 36°35' E 013°09'713.4
2017-May-17 17:30N 36°38' E 013°02'713.6
2017-May-17 17:00N 36°41' E 012°54'713.8
2017-May-17 16:30N 36°44' E 012°46'714.1
2017-May-17 16:00N 36°47' E 012°38'714.7
2017-May-17 15:30N 36°51' E 012°30'714.4
2017-May-17 15:00N 36°54' E 012°22'1312.4
2017-May-17 14:00N 36°59' E 012°08'613.0
2017-May-17 13:30N 37°02' E 012°01'913.2
2017-May-17 12:47N 37°07' E 011°51'913.0
2017-May-17 12:07N 37°11' E 011°41'313.0
2017-May-17 11:53N 37°12' E 011°37'27712.7
2017-May-16 14:02N 38°14' E 005°55'3212.9
2017-May-16 11:35N 38°19' E 005°15'213.0
2017-May-16 11:27N 38°20' E 005°13'613.1
2017-May-16 11:00N 38°21' E 005°06'713.0
2017-May-16 10:29N 38°22' E 004°57'612.6
2017-May-16 10:00N 38°23' E 004°50'1212.2
2017-May-16 09:02N 38°24' E 004°35'212.1
2017-May-16 08:52N 38°25' E 004°32'612.3
2017-May-16 08:21N 38°26' E 004°24'412.4
2017-May-16 08:00N 38°26' E 004°19'612.5
2017-May-16 07:30N 38°27' E 004°11'612.5
2017-May-16 07:00N 38°28' E 004°03'612.5
2017-May-16 06:30N 38°29' E 003°55'612.5
2017-May-16 06:00N 38°30' E 003°47'612.7
2017-May-16 05:30N 38°31' E 003°39'612.8
2017-May-16 05:00N 38°32' E 003°31'612.9
2017-May-16 04:30N 38°34' E 003°23'612.9
2017-May-16 04:00N 38°37' E 003°16'612.8
2017-May-16 03:30N 38°40' E 003°09'612.9
2017-May-16 03:00N 38°43' E 003°02'713.3
2017-May-16 02:30N 38°46' E 002°54'713.7
2017-May-16 02:00N 38°49' E 002°46'713.7
2017-May-16 01:30N 38°53' E 002°39'713.4
2017-May-16 01:00N 38°56' E 002°31'713.5
2017-May-16 00:30N 38°59' E 002°23'713.8
2017-May-16 00:01N 39°02' E 002°16'714.0
2017-May-15 23:30N 39°05' E 002°07'713.8
2017-May-15 23:00N 39°08' E 001°59'713.9
2017-May-15 22:31N 39°12' E 001°52'713.9
2017-May-15 22:00N 39°15' E 001°44'713.5
2017-May-15 21:29N 39°19' E 001°36'613.1
2017-May-15 21:00N 39°22' E 001°29'713.0
2017-May-15 20:30N 39°26' E 001°22'713.0
2017-May-15 19:58N 39°29' E 001°14'2212.9
2017-May-15 18:17N 39°39' E 000°49'312.7
2017-May-15 18:00N 39°41' E 000°46'612.7
2017-May-15 17:30N 39°44' E 000°38'712.7
2017-May-15 16:59N 39°47' E 000°30'24 2.0
2017-May-15 05:02N 39°57' E 000°02'1 4.3
2017-May-15 04:44N 39°57' E 000°04'1 2.7
2017-May-15 04:30N 39°58' E 000°04'1 0.7
2017-May-15 03:09N 39°59' E 000°04'0 0.0
2017-May-15 02:39N 39°59' E 000°04'0 0.0
2017-May-14 12:26N 39°59' E 000°04'0 0.0
2017-May-14 11:56N 39°59' E 000°04'0 0.0
2017-May-14 11:14N 39°59' E 000°04'0 0.0
2017-May-14 10:50N 39°59' E 000°04'67 5.9
2017-May-13 23:26N 38°54' E 000°25'512.7
2017-May-13 23:00N 38°49' E 000°27'711.9
2017-May-13 22:23N 38°41' E 000°27'512.2
2017-May-13 21:59N 38°37' E 000°24'3112.4
2017-May-13 19:30N 38°11' E 000°04'712.9
2017-May-13 18:59N 38°05' W 000°02'913.5
2017-May-13 18:21N 37°59' W 000°08'513.8
2017-May-13 17:59N 37°54' W 000°12'714.0
2017-May-13 17:27N 37°48' W 000°17'614.0
2017-May-13 17:00N 37°43' W 000°22'713.9
2017-May-13 16:29N 37°37' W 000°27'713.8
2017-May-13 16:00N 37°32' W 000°32'714.0
2017-May-13 15:30N 37°27' W 000°39'714.1
2017-May-13 15:00N 37°23' W 000°45'813.8
2017-May-13 14:25N 37°16' W 000°52'  
Track history (hours):
 
Tides and Currents Weather Stations Pressure Air Temp Water Temp Dewpoint Dewpoint Depression Visibility Wind Speed Wind Dir Waves Ship Positions

Asian Empire

Last reported at 2017-May-22 03:35 UTC. Time now 2017-May-23 18:53 UTC.
Position N 31°22' E 029°01'.

Length 229 m; draft 8.2 m.

Type: Cargo ship. MMSI: 245087096.

Date/timePositionNaut miles runAvg speedWind from/ knotsBaromVisibWave heightAir tempDewpointWater temp
2017-May-22 03:35N 31°22' E 029°01'112.8
2017-May-22 03:30N 31°22' E 029°02'  
2017-May-18 22:46N 35°15' E 017°09'713.3
2017-May-18 22:12N 35°17' E 016°60'8313.6
2017-May-18 16:05N 35°43' E 015°22'1313.3
2017-May-18 15:06N 35°46' E 015°07'213.2
2017-May-18 14:59N 35°46' E 015°05'1212.8
2017-May-18 14:00N 35°51' E 014°50'5 9.6
2017-May-18 13:30N 35°53' E 014°45'0 0.1
2017-May-18 12:59N 35°53' E 014°45'0 0.0
2017-May-18 12:29N 35°53' E 014°45'0 0.0
2017-May-18 11:59N 35°53' E 014°45'0 0.0
2017-May-18 11:29N 35°53' E 014°45'0 0.0
2017-May-18 10:59N 35°53' E 014°45'0 0.0
2017-May-18 10:29N 35°53' E 014°45'0 0.0
2017-May-18 09:59N 35°53' E 014°45'0 0.0
2017-May-18 09:29N 35°53' E 014°45'0 0.0
2017-May-18 08:59N 35°53' E 014°45'0 0.1
2017-May-18 08:29N 35°53' E 014°45'0 0.0
2017-May-18 07:59N 35°53' E 014°45'0 0.0
2017-May-18 07:29N 35°53' E 014°45'0 0.0
2017-May-18 06:59N 35°53' E 014°45'0 0.0
2017-May-18 06:29N 35°53' E 014°45'0 0.0
2017-May-18 05:59N 35°53' E 014°45'0 0.0
2017-May-18 05:29N 35°53' E 014°45'0 0.0
2017-May-18 04:59N 35°53' E 014°45'0 0.0
2017-May-18 04:29N 35°53' E 014°45'0 0.0
2017-May-18 03:56N 35°53' E 014°45'0 0.0
2017-May-18 03:29N 35°53' E 014°45'0 0.0
2017-May-18 02:59N 35°53' E 014°45'0 0.0
2017-May-18 02:29N 35°53' E 014°45'0 0.0
2017-May-18 01:59N 35°53' E 014°45'0 0.0
2017-May-18 01:29N 35°53' E 014°45'0 0.1
2017-May-18 01:00N 35°53' E 014°45'3 6.9
2017-May-18 00:30N 35°55' E 014°42'713.0
2017-May-18 00:00N 35°59' E 014°35'713.1
2017-May-17 23:30N 36°03' E 014°29'713.2
2017-May-17 23:00N 36°07' E 014°22'613.2
2017-May-17 22:30N 36°09' E 014°15'713.1
2017-May-17 22:00N 36°12' E 014°07'612.8
2017-May-17 21:30N 36°15' E 014°00'612.8
2017-May-17 21:00N 36°18' E 013°53'712.9
2017-May-17 20:30N 36°21' E 013°46'713.4
2017-May-17 20:00N 36°25' E 013°39'713.3
2017-May-17 19:29N 36°27' E 013°31'1113.2
2017-May-17 18:40N 36°32' E 013°19'213.0
2017-May-17 18:30N 36°33' E 013°17'713.3
2017-May-17 18:00N 36°35' E 013°09'713.4
2017-May-17 17:30N 36°38' E 013°02'713.6
2017-May-17 17:00N 36°41' E 012°54'713.8
2017-May-17 16:30N 36°44' E 012°46'714.1
2017-May-17 16:00N 36°47' E 012°38'714.7
2017-May-17 15:30N 36°51' E 012°30'714.4
2017-May-17 15:00N 36°54' E 012°22'1312.4
2017-May-17 14:00N 36°59' E 012°08'613.0
2017-May-17 13:30N 37°02' E 012°01'913.2
2017-May-17 12:47N 37°07' E 011°51'913.0
2017-May-17 12:07N 37°11' E 011°41'313.0
2017-May-17 11:53N 37°12' E 011°37'27712.7
2017-May-16 14:02N 38°14' E 005°55'3212.9
2017-May-16 11:35N 38°19' E 005°15'213.0
2017-May-16 11:27N 38°20' E 005°13'613.1
2017-May-16 11:00N 38°21' E 005°06'713.0
2017-May-16 10:29N 38°22' E 004°57'612.6
2017-May-16 10:00N 38°23' E 004°50'1212.2
2017-May-16 09:02N 38°24' E 004°35'212.1
2017-May-16 08:52N 38°25' E 004°32'612.3
2017-May-16 08:21N 38°26' E 004°24'412.4
2017-May-16 08:00N 38°26' E 004°19'612.5
2017-May-16 07:30N 38°27' E 004°11'612.5
2017-May-16 07:00N 38°28' E 004°03'612.5
2017-May-16 06:30N 38°29' E 003°55'612.5
2017-May-16 06:00N 38°30' E 003°47'612.7
2017-May-16 05:30N 38°31' E 003°39'612.8
2017-May-16 05:00N 38°32' E 003°31'612.9
2017-May-16 04:30N 38°34' E 003°23'612.9
2017-May-16 04:00N 38°37' E 003°16'612.8
2017-May-16 03:30N 38°40' E 003°09'612.9
2017-May-16 03:00N 38°43' E 003°02'713.3
2017-May-16 02:30N 38°46' E 002°54'713.7
2017-May-16 02:00N 38°49' E 002°46'713.7
2017-May-16 01:30N 38°53' E 002°39'713.4
2017-May-16 01:00N 38°56' E 002°31'713.5
2017-May-16 00:30N 38°59' E 002°23'713.8
2017-May-16 00:01N 39°02' E 002°16'714.0
2017-May-15 23:30N 39°05' E 002°07'713.8
2017-May-15 23:00N 39°08' E 001°59'713.9
2017-May-15 22:31N 39°12' E 001°52'713.9
2017-May-15 22:00N 39°15' E 001°44'713.5
2017-May-15 21:29N 39°19' E 001°36'613.1
2017-May-15 21:00N 39°22' E 001°29'713.0
2017-May-15 20:30N 39°26' E 001°22'713.0
2017-May-15 19:58N 39°29' E 001°14'2212.9
2017-May-15 18:17N 39°39' E 000°49'312.7
2017-May-15 18:00N 39°41' E 000°46'612.7
2017-May-15 17:30N 39°44' E 000°38'712.7
2017-May-15 16:59N 39°47' E 000°30'24 2.0
2017-May-15 05:02N 39°57' E 000°02'1 4.3
2017-May-15 04:44N 39°57' E 000°04'1 2.7
2017-May-15 04:30N 39°58' E 000°04'1 0.7
2017-May-15 03:09N 39°59' E 000°04'0 0.0
2017-May-15 02:39N 39°59' E 000°04'0 0.0
2017-May-14 12:26N 39°59' E 000°04'0 0.0
2017-May-14 11:56N 39°59' E 000°04'0 0.0
2017-May-14 11:14N 39°59' E 000°04'0 0.0
2017-May-14 10:50N 39°59' E 000°04'67 5.9
2017-May-13 23:26N 38°54' E 000°25'512.7
2017-May-13 23:00N 38°49' E 000°27'711.9
2017-May-13 22:23N 38°41' E 000°27'512.2
2017-May-13 21:59N 38°37' E 000°24'3112.4
2017-May-13 19:30N 38°11' E 000°04'712.9
2017-May-13 18:59N 38°05' W 000°02'913.5
2017-May-13 18:21N 37°59' W 000°08'513.8
2017-May-13 17:59N 37°54' W 000°12'714.0
2017-May-13 17:27N 37°48' W 000°17'614.0
2017-May-13 17:00N 37°43' W 000°22'713.9
2017-May-13 16:29N 37°37' W 000°27'713.8
2017-May-13 16:00N 37°32' W 000°32'714.0
2017-May-13 15:30N 37°27' W 000°39'714.1
2017-May-13 15:00N 37°23' W 000°45'813.8
2017-May-13 14:25N 37°16' W 000°52'  

Dump ship's entire track history